Kezdőlap
METAR-TAF:

METAR-TAF

Repülőterek :

Clyde, Nunavut, Kanada

földrajzi szélesség: 70-29N, földrajzi hosszúság: 068-31W, magasság: 25 m

Jelenlegi meteorológiai megfigyelések

A jelentés 22 perccel ezelõtt készült, 17:00 UTC
Nyugat-északnyugati szél 5 kt
Hőmérséklet -30°C
Páratartalom 75%
Légköri nyomás 1019 hPa
Látótávolság: 40.2 km
Kevés felhő 25000 lábon

METAR: CYCY 101700Z 29005KT 25SM FEW250 M30/M33 A3010 RMK CI1 SLP199

Idő: 12:22 (17:22 UTC)

Előrejelzés

A jelentés 4 órával és 43 perccel ezelõtt készült, 12:39 UTC
Az előrejelzés 10-én 13 óra UTC és 11-én 01 óra UTC között érvényes
Különbözõ irányokból fújó szél 3 kt
Látótávolság: 10 km
Szórványos felhőzet 18000 lábon

TAF: CYCY 101239Z 1013/1101 VRB03KT P6SM SCT180 RMK FCST BASED ON AUTO OBS. NXT FCST BY 101900Z

Meteorológiai megfigyelések és előrejelzések több, mint 4000 repülőtéren (METAR és TAF jelentéseket).

A térképen piros és sárga pontok jelzik az elérhető meteorológiai állomásokat.

Mozgassa az egeret a pont fölött, hogy megjelenjen az állomás neve.

Azután kattintson az időjárási megfigyelések és előrejelzések megtekintéséhez.

A térkép megváltoztatása: kattintson a fekete keresztel jelölt zöld gombra ráközelítéshez, a vonallal jelölt zöld gombra távolításhoz, vagy a zöld nyilakra a szomszédos térképek eléréséhez.


METAR-TAF: